sensor_id;sensor_type;location;lat;lon;timestamp;pressure;altitude;pressure_sealevel;temperature;humidity
34177;BME280;20450;49.074;9.158;2023-03-19T00:02:23;99468.03;;;10.50;75.59
34177;BME280;20450;49.074;9.158;2023-03-19T00:04:50;99467.81;;;10.52;74.86
34177;BME280;20450;49.074;9.158;2023-03-19T00:07:17;99469.03;;;10.56;74.48
34177;BME280;20450;49.074;9.158;2023-03-19T00:09:44;99470.97;;;10.42;74.66
34177;BME280;20450;49.074;9.158;2023-03-19T00:12:12;99476.81;;;10.39;75.66
34177;BME280;20450;49.074;9.158;2023-03-19T00:14:40;99470.22;;;10.29;76.64
34177;BME280;20450;49.074;9.158;2023-03-19T00:17:07;99475.72;;;10.16;77.31
34177;BME280;20450;49.074;9.158;2023-03-19T00:19:34;99484.44;;;10.18;76.87
34177;BME280;20450;49.074;9.158;2023-03-19T00:22:01;99479.81;;;10.25;76.60
34177;BME280;20450;49.074;9.158;2023-03-19T00:24:27;99482.75;;;10.23;76.44
34177;BME280;20450;49.074;9.158;2023-03-19T00:26:55;99480.53;;;10.00;76.67
34177;BME280;20450;49.074;9.158;2023-03-19T00:29:23;99482.03;;;9.96;76.13
34177;BME280;20450;49.074;9.158;2023-03-19T00:31:50;99471.16;;;10.03;76.01
34177;BME280;20450;49.074;9.158;2023-03-19T00:34:17;99478.66;;;10.08;76.15
34177;BME280;20450;49.074;9.158;2023-03-19T00:36:44;99475.75;;;10.09;76.49
34177;BME280;20450;49.074;9.158;2023-03-19T00:39:11;99470.53;;;10.14;76.02
34177;BME280;20450;49.074;9.158;2023-03-19T00:41:38;99474.22;;;10.26;76.14
34177;BME280;20450;49.074;9.158;2023-03-19T00:44:05;99470.75;;;10.44;75.32
34177;BME280;20450;49.074;9.158;2023-03-19T00:46:33;99476.56;;;10.47;74.35
34177;BME280;20450;49.074;9.158;2023-03-19T00:49:00;99469.50;;;10.46;75.38
34177;BME280;20450;49.074;9.158;2023-03-19T00:51:27;99472.25;;;10.40;76.20
34177;BME280;20450;49.074;9.158;2023-03-19T00:53:54;99468.47;;;10.10;77.68
34177;BME280;20450;49.074;9.158;2023-03-19T00:56:21;99473.72;;;9.91;78.08
34177;BME280;20450;49.074;9.158;2023-03-19T00:58:48;99467.31;;;9.86;76.74
34177;BME280;20450;49.074;9.158;2023-03-19T01:01:16;99472.25;;;9.95;76.47
34177;BME280;20450;49.074;9.158;2023-03-19T01:03:45;99472.44;;;10.07;75.75
34177;BME280;20450;49.074;9.158;2023-03-19T01:06:12;99466.53;;;10.23;75.73
34177;BME280;20450;49.074;9.158;2023-03-19T01:08:39;99468.72;;;10.39;75.66
34177;BME280;20450;49.074;9.158;2023-03-19T01:11:07;99477.97;;;10.56;74.58
34177;BME280;20450;49.074;9.158;2023-03-19T01:13:35;99475.38;;;10.68;74.67
34177;BME280;20450;49.074;9.158;2023-03-19T01:16:03;99480.47;;;10.76;74.25
34177;BME280;20450;49.074;9.158;2023-03-19T01:18:30;99474.81;;;10.84;73.89
34177;BME280;20450;49.074;9.158;2023-03-19T01:21:00;99479.06;;;10.73;73.32
34177;BME280;20450;49.074;9.158;2023-03-19T01:23:28;99484.75;;;10.65;74.46
34177;BME280;20450;49.074;9.158;2023-03-19T01:25:56;99487.91;;;10.56;74.74
34177;BME280;20450;49.074;9.158;2023-03-19T01:28:24;99495.41;;;10.54;74.86
34177;BME280;20450;49.074;9.158;2023-03-19T01:30:51;99483.91;;;10.65;74.63
34177;BME280;20450;49.074;9.158;2023-03-19T01:33:38;99488.00;;;10.74;73.64
34177;BME280;20450;49.074;9.158;2023-03-19T01:36:32;99483.97;;;10.83;72.88
34177;BME280;20450;49.074;9.158;2023-03-19T01:39:01;99488.28;;;10.90;72.58
34177;BME280;20450;49.074;9.158;2023-03-19T01:41:28;99486.34;;;10.97;72.47
34177;BME280;20450;49.074;9.158;2023-03-19T01:44:02;99492.94;;;11.01;71.56
34177;BME280;20450;49.074;9.158;2023-03-19T01:46:39;99499.59;;;11.05;71.81
34177;BME280;20450;49.074;9.158;2023-03-19T01:49:29;99509.97;;;11.08;71.93
34177;BME280;20450;49.074;9.158;2023-03-19T01:52:31;99509.53;;;11.11;71.36
34177;BME280;20450;49.074;9.158;2023-03-19T01:55:14;99494.56;;;11.09;71.58
34177;BME280;20450;49.074;9.158;2023-03-19T01:58:19;99525.91;;;10.92;72.87
34177;BME280;20450;49.074;9.158;2023-03-19T02:01:06;99537.94;;;10.89;73.33
34177;BME280;20450;49.074;9.158;2023-03-19T02:03:39;99534.22;;;10.90;71.95
34177;BME280;20450;49.074;9.158;2023-03-19T02:06:15;99528.91;;;10.77;71.63
34177;BME280;20450;49.074;9.158;2023-03-19T02:08:46;99539.69;;;10.46;72.96
34177;BME280;20450;49.074;9.158;2023-03-19T02:11:15;99538.69;;;10.47;72.49
34177;BME280;20450;49.074;9.158;2023-03-19T02:13:43;99540.28;;;10.55;73.70
34177;BME280;20450;49.074;9.158;2023-03-19T02:16:11;99545.63;;;10.61;73.92
34177;BME280;20450;49.074;9.158;2023-03-19T02:18:39;99548.63;;;10.53;72.06
34177;BME280;20450;49.074;9.158;2023-03-19T02:21:09;99547.31;;;10.62;72.10
34177;BME280;20450;49.074;9.158;2023-03-19T02:23:42;99553.94;;;10.66;72.13
34177;BME280;20450;49.074;9.158;2023-03-19T02:26:21;99549.94;;;10.38;72.76
34177;BME280;20450;49.074;9.158;2023-03-19T02:28:52;99542.47;;;10.33;72.97
34177;BME280;20450;49.074;9.158;2023-03-19T02:31:27;99538.78;;;10.28;73.90
34177;BME280;20450;49.074;9.158;2023-03-19T02:33:57;99536.22;;;10.39;73.66
34177;BME280;20450;49.074;9.158;2023-03-19T02:36:29;99544.03;;;10.54;73.62
34177;BME280;20450;49.074;9.158;2023-03-19T02:39:01;99538.84;;;10.52;73.25
34177;BME280;20450;49.074;9.158;2023-03-19T02:41:33;99541.94;;;10.56;74.85
34177;BME280;20450;49.074;9.158;2023-03-19T02:44:03;99547.25;;;10.69;75.21
34177;BME280;20450;49.074;9.158;2023-03-19T02:46:31;99548.66;;;10.78;75.00
34177;BME280;20450;49.074;9.158;2023-03-19T02:48:58;99540.88;;;10.88;75.16
34177;BME280;20450;49.074;9.158;2023-03-19T02:51:25;99543.00;;;10.86;75.44
34177;BME280;20450;49.074;9.158;2023-03-19T02:53:52;99536.09;;;10.90;75.52
34177;BME280;20450;49.074;9.158;2023-03-19T02:56:18;99538.75;;;10.96;76.09
34177;BME280;20450;49.074;9.158;2023-03-19T02:58:47;99534.56;;;11.00;76.32
34177;BME280;20450;49.074;9.158;2023-03-19T03:01:14;99546.56;;;11.04;76.44
34177;BME280;20450;49.074;9.158;2023-03-19T03:03:41;99546.75;;;11.09;76.11
34177;BME280;20450;49.074;9.158;2023-03-19T03:06:08;99552.25;;;10.96;78.17
34177;BME280;20450;49.074;9.158;2023-03-19T03:08:35;99554.03;;;10.47;79.96
34177;BME280;20450;49.074;9.158;2023-03-19T03:11:02;99548.75;;;10.27;82.59
34177;BME280;20450;49.074;9.158;2023-03-19T03:13:29;99534.44;;;10.20;83.40
34177;BME280;20450;49.074;9.158;2023-03-19T03:15:57;99535.53;;;10.13;83.31
34177;BME280;20450;49.074;9.158;2023-03-19T03:18:24;99534.31;;;10.09;82.90
34177;BME280;20450;49.074;9.158;2023-03-19T03:20:52;99540.91;;;10.06;83.43
34177;BME280;20450;49.074;9.158;2023-03-19T03:23:19;99542.41;;;10.09;84.01
34177;BME280;20450;49.074;9.158;2023-03-19T03:25:47;99538.38;;;10.24;82.68
34177;BME280;20450;49.074;9.158;2023-03-19T03:28:15;99553.28;;;10.33;82.12
34177;BME280;20450;49.074;9.158;2023-03-19T03:30:41;99550.28;;;10.48;82.53
34177;BME280;20450;49.074;9.158;2023-03-19T03:33:10;99558.50;;;10.66;82.57
34177;BME280;20450;49.074;9.158;2023-03-19T03:35:38;99554.25;;;10.76;82.81
34177;BME280;20450;49.074;9.158;2023-03-19T03:38:05;99556.94;;;10.83;82.73
34177;BME280;20450;49.074;9.158;2023-03-19T03:40:32;99557.09;;;10.88;82.04
34177;BME280;20450;49.074;9.158;2023-03-19T03:42:59;99560.81;;;10.93;81.55
34177;BME280;20450;49.074;9.158;2023-03-19T03:45:26;99558.53;;;10.90;81.76
34177;BME280;20450;49.074;9.158;2023-03-19T03:47:53;99555.00;;;10.59;83.03
34177;BME280;20450;49.074;9.158;2023-03-19T03:50:21;99562.72;;;10.55;83.52
34177;BME280;20450;49.074;9.158;2023-03-19T03:52:51;99555.41;;;10.62;83.98
34177;BME280;20450;49.074;9.158;2023-03-19T03:55:18;99556.44;;;10.61;82.81
34177;BME280;20450;49.074;9.158;2023-03-19T03:57:45;99554.66;;;10.49;83.83
34177;BME280;20450;49.074;9.158;2023-03-19T04:00:20;99568.94;;;10.56;84.44
34177;BME280;20450;49.074;9.158;2023-03-19T04:02:47;99560.84;;;10.56;84.00
34177;BME280;20450;49.074;9.158;2023-03-19T04:05:15;99561.84;;;10.61;84.26
34177;BME280;20450;49.074;9.158;2023-03-19T04:07:44;99560.16;;;10.67;84.15
34177;BME280;20450;49.074;9.158;2023-03-19T04:10:11;99570.69;;;10.75;84.42
34177;BME280;20450;49.074;9.158;2023-03-19T04:13:09;99572.34;;;10.76;83.35
34177;BME280;20450;49.074;9.158;2023-03-19T04:16:29;99571.19;;;10.65;84.03
34177;BME280;20450;49.074;9.158;2023-03-19T04:18:57;99570.56;;;10.63;84.65
34177;BME280;20450;49.074;9.158;2023-03-19T04:21:24;99577.56;;;10.40;83.27
34177;BME280;20450;49.074;9.158;2023-03-19T04:23:52;99579.28;;;10.21;82.68
34177;BME280;20450;49.074;9.158;2023-03-19T04:26:19;99573.94;;;10.15;83.49
34177;BME280;20450;49.074;9.158;2023-03-19T04:28:46;99569.75;;;10.19;83.42
34177;BME280;20450;49.074;9.158;2023-03-19T04:31:13;99576.56;;;10.28;82.75
34177;BME280;20450;49.074;9.158;2023-03-19T04:33:43;99572.88;;;10.16;83.10
34177;BME280;20450;49.074;9.158;2023-03-19T04:36:10;99580.97;;;10.22;82.31
34177;BME280;20450;49.074;9.158;2023-03-19T04:38:37;99581.72;;;10.36;82.70
34177;BME280;20450;49.074;9.158;2023-03-19T04:41:05;99583.75;;;10.47;83.55
34177;BME280;20450;49.074;9.158;2023-03-19T04:43:35;99573.06;;;10.58;83.28
34177;BME280;20450;49.074;9.158;2023-03-19T04:46:03;99581.81;;;10.54;81.38
34177;BME280;20450;49.074;9.158;2023-03-19T04:48:30;99581.69;;;10.42;81.13
34177;BME280;20450;49.074;9.158;2023-03-19T04:50:58;99590.22;;;10.39;81.24
34177;BME280;20450;49.074;9.158;2023-03-19T04:53:25;99590.66;;;10.36;81.79
34177;BME280;20450;49.074;9.158;2023-03-19T04:55:52;99592.94;;;10.33;80.29
34177;BME280;20450;49.074;9.158;2023-03-19T04:58:21;99602.06;;;10.38;80.26
34177;BME280;20450;49.074;9.158;2023-03-19T05:00:55;99607.63;;;10.43;80.61
34177;BME280;20450;49.074;9.158;2023-03-19T05:03:42;99600.16;;;10.45;80.37
34177;BME280;20450;49.074;9.158;2023-03-19T05:06:09;99598.72;;;10.43;78.88
34177;BME280;20450;49.074;9.158;2023-03-19T05:08:36;99599.53;;;10.43;80.74
34177;BME280;20450;49.074;9.158;2023-03-19T05:11:03;99610.75;;;10.40;79.88
34177;BME280;20450;49.074;9.158;2023-03-19T05:13:42;99603.66;;;10.52;78.97
34177;BME280;20450;49.074;9.158;2023-03-19T05:16:08;99599.66;;;10.61;79.20
34177;BME280;20450;49.074;9.158;2023-03-19T05:18:36;99613.38;;;10.60;78.62
34177;BME280;20450;49.074;9.158;2023-03-19T05:21:09;99615.44;;;10.64;79.63
34177;BME280;20450;49.074;9.158;2023-03-19T05:23:37;99605.50;;;10.58;79.83
34177;BME280;20450;49.074;9.158;2023-03-19T05:26:07;99614.88;;;10.49;79.77
34177;BME280;20450;49.074;9.158;2023-03-19T05:29:11;99617.03;;;10.34;80.36
34177;BME280;20450;49.074;9.158;2023-03-19T05:31:51;99610.34;;;10.43;80.59
34177;BME280;20450;49.074;9.158;2023-03-19T05:34:19;99610.59;;;10.35;80.73
34177;BME280;20450;49.074;9.158;2023-03-19T05:36:47;99612.03;;;10.31;81.20
34177;BME280;20450;49.074;9.158;2023-03-19T05:39:17;99622.97;;;10.49;81.95
34177;BME280;20450;49.074;9.158;2023-03-19T05:41:44;99626.88;;;10.66;81.65
34177;BME280;20450;49.074;9.158;2023-03-19T05:44:17;99626.66;;;10.61;80.18
34177;BME280;20450;49.074;9.158;2023-03-19T05:47:09;99626.13;;;10.46;79.63
34177;BME280;20450;49.074;9.158;2023-03-19T05:49:39;99629.56;;;10.66;77.62
34177;BME280;20450;49.074;9.158;2023-03-19T05:52:06;99635.41;;;10.63;78.79
34177;BME280;20450;49.074;9.158;2023-03-19T05:54:33;99634.59;;;10.56;79.83
34177;BME280;20450;49.074;9.158;2023-03-19T05:57:06;99635.59;;;10.68;80.59
34177;BME280;20450;49.074;9.158;2023-03-19T05:59:44;99628.66;;;10.79;79.04
34177;BME280;20450;49.074;9.158;2023-03-19T06:02:22;99630.75;;;10.77;78.37
34177;BME280;20450;49.074;9.158;2023-03-19T06:04:57;99634.25;;;10.77;77.71
34177;BME280;20450;49.074;9.158;2023-03-19T06:07:28;99638.28;;;10.68;77.79
34177;BME280;20450;49.074;9.158;2023-03-19T06:09:55;99642.50;;;10.58;79.06
34177;BME280;20450;49.074;9.158;2023-03-19T06:12:22;99653.31;;;10.58;78.87
34177;BME280;20450;49.074;9.158;2023-03-19T06:15:10;99658.06;;;10.62;78.21
34177;BME280;20450;49.074;9.158;2023-03-19T06:17:42;99653.88;;;10.66;77.92
34177;BME280;20450;49.074;9.158;2023-03-19T06:20:11;99652.88;;;10.61;78.65
34177;BME280;20450;49.074;9.158;2023-03-19T06:22:40;99652.88;;;10.61;78.48
34177;BME280;20450;49.074;9.158;2023-03-19T06:25:07;99649.13;;;10.62;78.78
34177;BME280;20450;49.074;9.158;2023-03-19T06:27:36;99663.19;;;10.70;78.44
34177;BME280;20450;49.074;9.158;2023-03-19T06:30:22;99662.59;;;10.68;78.67
34177;BME280;20450;49.074;9.158;2023-03-19T06:32:50;99660.34;;;10.65;78.03
34177;BME280;20450;49.074;9.158;2023-03-19T06:35:17;99656.31;;;10.74;78.35
34177;BME280;20450;49.074;9.158;2023-03-19T06:37:47;99658.56;;;10.77;77.63
34177;BME280;20450;49.074;9.158;2023-03-19T06:40:14;99657.38;;;10.73;78.91
34177;BME280;20450;49.074;9.158;2023-03-19T06:42:43;99660.25;;;10.78;77.65
34177;BME280;20450;49.074;9.158;2023-03-19T06:45:12;99650.25;;;10.79;77.42
34177;BME280;20450;49.074;9.158;2023-03-19T06:47:41;99656.06;;;10.82;78.58
34177;BME280;20450;49.074;9.158;2023-03-19T06:50:09;99662.44;;;10.94;78.33
34177;BME280;20450;49.074;9.158;2023-03-19T06:52:36;99656.41;;;10.92;77.84
34177;BME280;20450;49.074;9.158;2023-03-19T06:55:04;99665.19;;;10.88;78.89
34177;BME280;20450;49.074;9.158;2023-03-19T06:57:33;99667.50;;;10.84;77.62
34177;BME280;20450;49.074;9.158;2023-03-19T07:00:01;99669.78;;;10.81;78.58
34177;BME280;20450;49.074;9.158;2023-03-19T07:02:28;99673.97;;;10.77;79.08
34177;BME280;20450;49.074;9.158;2023-03-19T07:04:56;99670.38;;;10.89;78.25
34177;BME280;20450;49.074;9.158;2023-03-19T07:07:23;99682.38;;;11.00;77.44
34177;BME280;20450;49.074;9.158;2023-03-19T07:09:50;99676.50;;;11.09;77.65
34177;BME280;20450;49.074;9.158;2023-03-19T07:12:17;99679.13;;;11.22;76.40
34177;BME280;20450;49.074;9.158;2023-03-19T07:14:44;99686.16;;;11.23;76.33
34177;BME280;20450;49.074;9.158;2023-03-19T07:17:11;99676.25;;;11.17;76.08
34177;BME280;20450;49.074;9.158;2023-03-19T07:19:38;99690.66;;;11.05;77.78
34177;BME280;20450;49.074;9.158;2023-03-19T07:22:06;99695.84;;;11.06;77.44
34177;BME280;20450;49.074;9.158;2023-03-19T07:24:33;99695.84;;;11.13;76.49
34177;BME280;20450;49.074;9.158;2023-03-19T07:27:00;99698.66;;;11.24;77.29
34177;BME280;20450;49.074;9.158;2023-03-19T07:29:27;99689.47;;;11.32;77.99
34177;BME280;20450;49.074;9.158;2023-03-19T07:31:54;99685.94;;;11.25;78.25
34177;BME280;20450;49.074;9.158;2023-03-19T07:34:21;99694.00;;;11.07;78.99
34177;BME280;20450;49.074;9.158;2023-03-19T07:36:48;99686.53;;;11.02;79.28
34177;BME280;20450;49.074;9.158;2023-03-19T07:39:17;99687.75;;;11.06;77.88
34177;BME280;20450;49.074;9.158;2023-03-19T07:41:44;99684.09;;;11.25;78.58
34177;BME280;20450;49.074;9.158;2023-03-19T07:44:13;99685.53;;;11.28;77.09
34177;BME280;20450;49.074;9.158;2023-03-19T07:46:40;99686.34;;;11.28;76.54
34177;BME280;20450;49.074;9.158;2023-03-19T07:49:08;99691.88;;;11.40;76.41
34177;BME280;20450;49.074;9.158;2023-03-19T07:51:35;99688.63;;;11.31;77.32
34177;BME280;20450;49.074;9.158;2023-03-19T07:54:02;99693.59;;;11.34;77.83
34177;BME280;20450;49.074;9.158;2023-03-19T07:56:31;99690.03;;;11.40;76.69
34177;BME280;20450;49.074;9.158;2023-03-19T07:58:58;99699.31;;;11.51;77.27
34177;BME280;20450;49.074;9.158;2023-03-19T08:01:25;99689.78;;;11.73;76.76
34177;BME280;20450;49.074;9.158;2023-03-19T08:03:52;99692.59;;;11.84;75.81
34177;BME280;20450;49.074;9.158;2023-03-19T08:06:19;99701.13;;;11.88;75.39
34177;BME280;20450;49.074;9.158;2023-03-19T08:08:46;99703.78;;;11.95;74.88
34177;BME280;20450;49.074;9.158;2023-03-19T08:11:13;99702.66;;;12.20;74.21
34177;BME280;20450;49.074;9.158;2023-03-19T08:13:42;99699.41;;;12.36;73.51
34177;BME280;20450;49.074;9.158;2023-03-19T08:16:09;99696.09;;;12.70;73.61
34177;BME280;20450;49.074;9.158;2023-03-19T08:18:39;99695.53;;;12.80;70.74
34177;BME280;20450;49.074;9.158;2023-03-19T08:21:13;99688.06;;;12.75;70.22
34177;BME280;20450;49.074;9.158;2023-03-19T08:23:43;99692.06;;;12.73;70.48
34177;BME280;20450;49.074;9.158;2023-03-19T08:26:11;99687.59;;;13.14;70.53
34177;BME280;20450;49.074;9.158;2023-03-19T08:28:42;99688.63;;;13.02;69.69
34177;BME280;20450;49.074;9.158;2023-03-19T08:31:12;99695.69;;;13.85;67.81
34177;BME280;20450;49.074;9.158;2023-03-19T08:33:42;99683.94;;;14.77;64.42
34177;BME280;20450;49.074;9.158;2023-03-19T08:36:11;99677.66;;;15.60;59.55
34177;BME280;20450;49.074;9.158;2023-03-19T08:38:42;99687.09;;;15.13;61.24
34177;BME280;20450;49.074;9.158;2023-03-19T08:41:15;99683.66;;;16.67;58.09
34177;BME280;20450;49.074;9.158;2023-03-19T08:43:43;99688.00;;;18.69;51.90
34177;BME280;20450;49.074;9.158;2023-03-19T08:46:13;99677.13;;;19.91;45.33
34177;BME280;20450;49.074;9.158;2023-03-19T08:48:40;99692.31;;;17.02;52.63
34177;BME280;20450;49.074;9.158;2023-03-19T08:51:11;99694.16;;;18.96;50.14
34177;BME280;20450;49.074;9.158;2023-03-19T08:53:38;99694.84;;;16.87;52.26
34177;BME280;20450;49.074;9.158;2023-03-19T08:56:06;99684.81;;;16.71;54.68
34177;BME280;20450;49.074;9.158;2023-03-19T08:58:34;99693.84;;;16.55;55.19
34177;BME280;20450;49.074;9.158;2023-03-19T09:01:06;99694.41;;;15.52;57.98
34177;BME280;20450;49.074;9.158;2023-03-19T09:03:34;99699.16;;;14.89;58.95
34177;BME280;20450;49.074;9.158;2023-03-19T09:06:04;99700.69;;;15.13;58.43
34177;BME280;20450;49.074;9.158;2023-03-19T09:08:33;99699.41;;;15.16;57.30
34177;BME280;20450;49.074;9.158;2023-03-19T09:11:01;99706.31;;;14.95;59.91
34177;BME280;20450;49.074;9.158;2023-03-19T09:13:28;99698.63;;;15.04;60.77
34177;BME280;20450;49.074;9.158;2023-03-19T09:15:59;99699.19;;;15.06;60.29
34177;BME280;20450;49.074;9.158;2023-03-19T09:18:28;99691.84;;;15.34;58.86
34177;BME280;20450;49.074;9.158;2023-03-19T09:20:56;99702.34;;;15.70;58.65
34177;BME280;20450;49.074;9.158;2023-03-19T09:23:23;99704.00;;;16.05;56.73
34177;BME280;20450;49.074;9.158;2023-03-19T09:25:53;99700.59;;;16.31;55.98
34177;BME280;20450;49.074;9.158;2023-03-19T09:28:24;99705.34;;;16.40;55.22
34177;BME280;20450;49.074;9.158;2023-03-19T09:30:51;99700.22;;;15.73;57.33
34177;BME280;20450;49.074;9.158;2023-03-19T09:33:19;99699.13;;;16.07;57.86
34177;BME280;20450;49.074;9.158;2023-03-19T09:35:55;99699.38;;;16.22;57.82
34177;BME280;20450;49.074;9.158;2023-03-19T09:38:23;99692.94;;;15.78;58.78
34177;BME280;20450;49.074;9.158;2023-03-19T09:41:02;99687.22;;;15.46;58.91
34177;BME280;20450;49.074;9.158;2023-03-19T09:43:56;99679.72;;;16.41;55.84
34177;BME280;20450;49.074;9.158;2023-03-19T09:46:35;99684.22;;;17.60;49.52
34177;BME280;20450;49.074;9.158;2023-03-19T09:49:13;99683.41;;;16.90;52.07
34177;BME280;20450;49.074;9.158;2023-03-19T09:51:51;99684.34;;;16.79;52.81
34177;BME280;20450;49.074;9.158;2023-03-19T09:54:28;99691.06;;;17.94;51.25
34177;BME280;20450;49.074;9.158;2023-03-19T09:57:01;99680.41;;;18.34;48.07
34177;BME280;20450;49.074;9.158;2023-03-19T09:59:28;99676.13;;;19.00;48.99
34177;BME280;20450;49.074;9.158;2023-03-19T10:02:09;99673.16;;;17.50;50.24
34177;BME280;20450;49.074;9.158;2023-03-19T10:05:01;99676.94;;;17.71;50.51
34177;BME280;20450;49.074;9.158;2023-03-19T10:07:51;99674.91;;;17.08;51.50
34177;BME280;20450;49.074;9.158;2023-03-19T10:10:48;99677.78;;;17.76;49.67
34177;BME280;20450;49.074;9.158;2023-03-19T10:13:33;99680.72;;;17.70;50.20
34177;BME280;20450;49.074;9.158;2023-03-19T10:16:15;99674.22;;;17.76;49.21
34177;BME280;20450;49.074;9.158;2023-03-19T10:18:48;99665.19;;;18.48;47.73
34177;BME280;20450;49.074;9.158;2023-03-19T10:21:21;99659.97;;;18.47;47.14
34177;BME280;20450;49.074;9.158;2023-03-19T10:23:56;99665.97;;;19.00;47.55
34177;BME280;20450;49.074;9.158;2023-03-19T10:26:28;99666.03;;;19.25;45.46
34177;BME280;20450;49.074;9.158;2023-03-19T10:29:03;99662.72;;;19.08;45.33
34177;BME280;20450;49.074;9.158;2023-03-19T10:31:48;99659.53;;;19.46;45.14
34177;BME280;20450;49.074;9.158;2023-03-19T10:34:27;99654.91;;;19.72;43.82
34177;BME280;20450;49.074;9.158;2023-03-19T10:37:03;99660.81;;;19.14;40.51
34177;BME280;20450;49.074;9.158;2023-03-19T10:39:34;99661.72;;;18.68;43.60
34177;BME280;20450;49.074;9.158;2023-03-19T10:42:33;99651.88;;;18.67;40.25
34177;BME280;20450;49.074;9.158;2023-03-19T10:45:19;99651.34;;;20.17;38.89
34177;BME280;20450;49.074;9.158;2023-03-19T10:47:50;99656.56;;;22.18;36.23
34177;BME280;20450;49.074;9.158;2023-03-19T10:50:20;99657.75;;;21.73;35.97
34177;BME280;20450;49.074;9.158;2023-03-19T10:52:51;99648.94;;;18.83;39.85
34177;BME280;20450;49.074;9.158;2023-03-19T10:55:29;99653.78;;;18.66;40.08
34177;BME280;20450;49.074;9.158;2023-03-19T10:58:02;99643.94;;;19.57;38.35
34177;BME280;20450;49.074;9.158;2023-03-19T11:00:32;99647.91;;;18.99;39.69
34177;BME280;20450;49.074;9.158;2023-03-19T11:03:02;99646.03;;;20.55;37.45
34177;BME280;20450;49.074;9.158;2023-03-19T11:05:30;99631.31;;;19.96;37.21
34177;BME280;20450;49.074;9.158;2023-03-19T11:08:00;99636.50;;;20.18;37.61
34177;BME280;20450;49.074;9.158;2023-03-19T11:10:32;99632.22;;;22.30;34.86
34177;BME280;20450;49.074;9.158;2023-03-19T11:13:04;99635.09;;;21.09;34.75
34177;BME280;20450;49.074;9.158;2023-03-19T11:15:34;99634.81;;;20.52;35.81
34177;BME280;20450;49.074;9.158;2023-03-19T11:18:15;99631.88;;;19.98;36.95
34177;BME280;20450;49.074;9.158;2023-03-19T11:20:49;99634.25;;;19.19;38.52
34177;BME280;20450;49.074;9.158;2023-03-19T11:23:26;99626.09;;;19.75;37.63
34177;BME280;20450;49.074;9.158;2023-03-19T11:25:58;99621.13;;;20.27;36.79
34177;BME280;20450;49.074;9.158;2023-03-19T11:28:27;99624.22;;;20.89;35.76
34177;BME280;20450;49.074;9.158;2023-03-19T11:30:59;99625.25;;;20.19;36.81
34177;BME280;20450;49.074;9.158;2023-03-19T11:33:41;99628.44;;;18.96;39.41
34177;BME280;20450;49.074;9.158;2023-03-19T11:36:22;99628.66;;;18.79;40.50
34177;BME280;20450;49.074;9.158;2023-03-19T11:39:11;99619.56;;;18.59;40.41
34177;BME280;20450;49.074;9.158;2023-03-19T11:42:05;99614.16;;;18.22;40.67
34177;BME280;20450;49.074;9.158;2023-03-19T11:44:59;99613.06;;;18.80;40.33
34177;BME280;20450;49.074;9.158;2023-03-19T11:47:39;99604.75;;;19.82;39.63
34177;BME280;20450;49.074;9.158;2023-03-19T11:50:24;99610.19;;;21.39;36.04
34177;BME280;20450;49.074;9.158;2023-03-19T11:53:16;99607.22;;;21.69;34.12
34177;BME280;20450;49.074;9.158;2023-03-19T11:55:59;99608.44;;;18.90;40.21
34177;BME280;20450;49.074;9.158;2023-03-19T11:59:00;99607.75;;;19.60;39.09
34177;BME280;20450;49.074;9.158;2023-03-19T12:02:10;99598.16;;;20.13;37.92
34177;BME280;20450;49.074;9.158;2023-03-19T12:05:15;99600.94;;;21.25;36.71
34177;BME280;20450;49.074;9.158;2023-03-19T12:07:55;99601.19;;;20.80;38.07
34177;BME280;20450;49.074;9.158;2023-03-19T12:10:41;99589.88;;;19.12;40.17
34177;BME280;20450;49.074;9.158;2023-03-19T12:13:27;99595.13;;;18.37;42.06
34177;BME280;20450;49.074;9.158;2023-03-19T12:16:16;99585.50;;;19.01;41.00
34177;BME280;20450;49.074;9.158;2023-03-19T12:19:12;99592.69;;;18.46;42.16
34177;BME280;20450;49.074;9.158;2023-03-19T12:22:03;99603.13;;;17.66;43.76
34177;BME280;20450;49.074;9.158;2023-03-19T12:24:59;99595.38;;;17.57;44.81
34177;BME280;20450;49.074;9.158;2023-03-19T12:27:39;99600.84;;;17.57;45.38
34177;BME280;20450;49.074;9.158;2023-03-19T12:30:29;99595.22;;;17.69;44.59
34177;BME280;20450;49.074;9.158;2023-03-19T12:33:10;99591.97;;;18.19;44.41
34177;BME280;20450;49.074;9.158;2023-03-19T12:35:54;99597.94;;;18.06;44.82
34177;BME280;20450;49.074;9.158;2023-03-19T12:38:26;99603.03;;;17.92;44.22
34177;BME280;20450;49.074;9.158;2023-03-19T12:41:04;99589.78;;;17.74;44.39
34177;BME280;20450;49.074;9.158;2023-03-19T12:43:37;99598.06;;;17.21;45.37
34177;BME280;20450;49.074;9.158;2023-03-19T12:46:13;99599.16;;;17.25;46.21
34177;BME280;20450;49.074;9.158;2023-03-19T12:48:49;99602.28;;;17.65;46.36
34177;BME280;20450;49.074;9.158;2023-03-19T12:51:23;99595.63;;;17.88;46.03
34177;BME280;20450;49.074;9.158;2023-03-19T12:53:55;99600.09;;;18.04;45.46
34177;BME280;20450;49.074;9.158;2023-03-19T12:56:31;99602.91;;;18.14;45.80
34177;BME280;20450;49.074;9.158;2023-03-19T12:59:10;99612.44;;;18.11;46.18
34177;BME280;20450;49.074;9.158;2023-03-19T13:01:48;99598.81;;;18.16;47.40
34177;BME280;20450;49.074;9.158;2023-03-19T13:04:23;99607.84;;;18.22;47.02
34177;BME280;20450;49.074;9.158;2023-03-19T13:07:00;99616.84;;;16.91;52.53
34177;BME280;20450;49.074;9.158;2023-03-19T13:09:35;99620.00;;;16.40;54.61
34177;BME280;20450;49.074;9.158;2023-03-19T13:12:10;99628.16;;;15.63;61.32
34177;BME280;20450;49.074;9.158;2023-03-19T13:14:50;99631.13;;;14.61;64.50
34177;BME280;20450;49.074;9.158;2023-03-19T13:17:26;99630.91;;;14.51;60.88
34177;BME280;20450;49.074;9.158;2023-03-19T13:20:06;99633.22;;;14.71;61.80
34177;BME280;20450;49.074;9.158;2023-03-19T13:22:43;99620.88;;;15.08;63.30
34177;BME280;20450;49.074;9.158;2023-03-19T13:25:22;99612.22;;;15.39;61.70
34177;BME280;20450;49.074;9.158;2023-03-19T13:27:55;99617.28;;;15.19;58.08
34177;BME280;20450;49.074;9.158;2023-03-19T13:30:23;99620.28;;;15.06;58.12